sensor_id;sensor_type;location;lat;lon;timestamp;P1;durP1;ratioP1;P2;durP2;ratioP2
54388;SDS011;40975;50.390;8.640;2023-11-21T00:02:12;7.47;;;3.58;;
54388;SDS011;40975;50.390;8.640;2023-11-21T00:04:37;6.15;;;3.45;;
54388;SDS011;40975;50.390;8.640;2023-11-21T00:07:03;4.05;;;2.60;;
54388;SDS011;40975;50.390;8.640;2023-11-21T00:09:28;4.75;;;2.60;;
54388;SDS011;40975;50.390;8.640;2023-11-21T00:11:53;5.30;;;2.33;;
54388;SDS011;40975;50.390;8.640;2023-11-21T00:14:19;3.13;;;2.00;;
54388;SDS011;40975;50.390;8.640;2023-11-21T00:16:44;3.42;;;1.90;;
54388;SDS011;40975;50.390;8.640;2023-11-21T00:19:10;5.07;;;1.98;;
54388;SDS011;40975;50.390;8.640;2023-11-21T00:21:36;5.40;;;1.80;;
54388;SDS011;40975;50.390;8.640;2023-11-21T00:24:02;5.10;;;1.85;;
54388;SDS011;40975;50.390;8.640;2023-11-21T00:26:28;7.05;;;2.67;;
54388;SDS011;40975;50.390;8.640;2023-11-21T00:29:00;2.70;;;1.95;;
54388;SDS011;40975;50.390;8.640;2023-11-21T00:31:25;5.85;;;2.28;;
54388;SDS011;40975;50.390;8.640;2023-11-21T00:33:51;6.40;;;2.45;;
54388;SDS011;40975;50.390;8.640;2023-11-21T00:36:16;6.80;;;2.30;;
54388;SDS011;40975;50.390;8.640;2023-11-21T00:38:43;7.00;;;2.38;;
54388;SDS011;40975;50.390;8.640;2023-11-21T00:41:08;4.38;;;2.03;;
54388;SDS011;40975;50.390;8.640;2023-11-21T00:43:33;4.18;;;2.35;;
54388;SDS011;40975;50.390;8.640;2023-11-21T00:45:59;4.88;;;2.30;;
54388;SDS011;40975;50.390;8.640;2023-11-21T00:48:29;5.65;;;2.60;;
54388;SDS011;40975;50.390;8.640;2023-11-21T00:50:54;8.60;;;2.97;;
54388;SDS011;40975;50.390;8.640;2023-11-21T00:53:21;7.70;;;4.07;;
54388;SDS011;40975;50.390;8.640;2023-11-21T00:55:46;6.88;;;3.38;;
54388;SDS011;40975;50.390;8.640;2023-11-21T00:58:12;10.05;;;4.25;;
54388;SDS011;40975;50.390;8.640;2023-11-21T01:00:38;8.45;;;4.88;;
54388;SDS011;40975;50.390;8.640;2023-11-21T01:03:04;11.40;;;5.75;;
54388;SDS011;40975;50.390;8.640;2023-11-21T01:05:30;11.75;;;6.30;;
54388;SDS011;40975;50.390;8.640;2023-11-21T01:07:55;12.95;;;6.22;;
54388;SDS011;40975;50.390;8.640;2023-11-21T01:10:20;17.15;;;7.03;;
54388;SDS011;40975;50.390;8.640;2023-11-21T01:12:46;14.63;;;7.13;;
54388;SDS011;40975;50.390;8.640;2023-11-21T01:15:12;12.50;;;7.03;;
54388;SDS011;40975;50.390;8.640;2023-11-21T01:17:37;14.57;;;7.13;;
54388;SDS011;40975;50.390;8.640;2023-11-21T01:20:03;14.85;;;8.40;;
54388;SDS011;40975;50.390;8.640;2023-11-21T01:22:36;13.55;;;7.40;;
54388;SDS011;40975;50.390;8.640;2023-11-21T01:25:02;13.35;;;6.25;;
54388;SDS011;40975;50.390;8.640;2023-11-21T01:27:29;18.20;;;8.18;;
54388;SDS011;40975;50.390;8.640;2023-11-21T01:29:55;13.68;;;6.88;;
54388;SDS011;40975;50.390;8.640;2023-11-21T01:32:21;15.00;;;7.20;;
54388;SDS011;40975;50.390;8.640;2023-11-21T01:34:47;15.95;;;7.35;;
54388;SDS011;40975;50.390;8.640;2023-11-21T01:37:13;17.00;;;7.47;;
54388;SDS011;40975;50.390;8.640;2023-11-21T01:39:38;12.10;;;7.07;;
54388;SDS011;40975;50.390;8.640;2023-11-21T01:42:04;13.27;;;7.75;;
54388;SDS011;40975;50.390;8.640;2023-11-21T01:44:30;19.23;;;7.95;;
54388;SDS011;40975;50.390;8.640;2023-11-21T01:46:56;13.55;;;7.75;;
54388;SDS011;40975;50.390;8.640;2023-11-21T01:49:23;12.85;;;6.65;;
54388;SDS011;40975;50.390;8.640;2023-11-21T01:51:49;15.48;;;7.07;;
54388;SDS011;40975;50.390;8.640;2023-11-21T01:54:16;13.27;;;6.57;;
54388;SDS011;40975;50.390;8.640;2023-11-21T01:56:42;15.50;;;6.80;;
54388;SDS011;40975;50.390;8.640;2023-11-21T01:59:11;13.40;;;6.78;;
54388;SDS011;40975;50.390;8.640;2023-11-21T02:01:39;14.60;;;6.57;;
54388;SDS011;40975;50.390;8.640;2023-11-21T02:04:05;15.40;;;6.88;;
54388;SDS011;40975;50.390;8.640;2023-11-21T02:06:30;11.85;;;6.45;;
54388;SDS011;40975;50.390;8.640;2023-11-21T02:08:56;15.32;;;7.78;;
54388;SDS011;40975;50.390;8.640;2023-11-21T02:11:21;15.57;;;6.40;;
54388;SDS011;40975;50.390;8.640;2023-11-21T02:13:46;13.02;;;6.65;;
54388;SDS011;40975;50.390;8.640;2023-11-21T02:16:12;14.70;;;6.20;;
54388;SDS011;40975;50.390;8.640;2023-11-21T02:18:38;14.65;;;7.40;;
54388;SDS011;40975;50.390;8.640;2023-11-21T02:21:04;20.20;;;7.75;;
54388;SDS011;40975;50.390;8.640;2023-11-21T02:23:30;15.63;;;7.28;;
54388;SDS011;40975;50.390;8.640;2023-11-21T02:25:55;15.95;;;7.85;;
54388;SDS011;40975;50.390;8.640;2023-11-21T02:28:21;18.02;;;8.30;;
54388;SDS011;40975;50.390;8.640;2023-11-21T02:30:51;19.40;;;7.60;;
54388;SDS011;40975;50.390;8.640;2023-11-21T02:33:21;18.98;;;8.57;;
54388;SDS011;40975;50.390;8.640;2023-11-21T02:35:47;21.33;;;7.95;;
54388;SDS011;40975;50.390;8.640;2023-11-21T02:38:13;23.27;;;8.80;;
54388;SDS011;40975;50.390;8.640;2023-11-21T02:40:38;23.80;;;8.30;;
54388;SDS011;40975;50.390;8.640;2023-11-21T02:43:04;15.93;;;7.70;;
54388;SDS011;40975;50.390;8.640;2023-11-21T02:45:30;21.63;;;9.32;;
54388;SDS011;40975;50.390;8.640;2023-11-21T02:47:56;21.80;;;8.18;;
54388;SDS011;40975;50.390;8.640;2023-11-21T02:50:22;17.58;;;7.10;;
54388;SDS011;40975;50.390;8.640;2023-11-21T02:52:47;20.52;;;7.85;;
54388;SDS011;40975;50.390;8.640;2023-11-21T02:55:13;25.08;;;7.93;;
54388;SDS011;40975;50.390;8.640;2023-11-21T02:57:38;16.98;;;7.30;;
54388;SDS011;40975;50.390;8.640;2023-11-21T03:00:04;19.77;;;7.97;;
54388;SDS011;40975;50.390;8.640;2023-11-21T03:02:33;16.92;;;8.05;;
54388;SDS011;40975;50.390;8.640;2023-11-21T03:05:01;19.63;;;8.23;;
54388;SDS011;40975;50.390;8.640;2023-11-21T03:07:27;16.95;;;7.13;;
54388;SDS011;40975;50.390;8.640;2023-11-21T03:09:52;14.48;;;7.32;;
54388;SDS011;40975;50.390;8.640;2023-11-21T03:12:18;18.17;;;8.15;;
54388;SDS011;40975;50.390;8.640;2023-11-21T03:14:44;13.68;;;6.90;;
54388;SDS011;40975;50.390;8.640;2023-11-21T03:17:10;13.30;;;5.80;;
54388;SDS011;40975;50.390;8.640;2023-11-21T03:19:35;10.10;;;5.13;;
54388;SDS011;40975;50.390;8.640;2023-11-21T03:22:00;12.82;;;5.90;;
54388;SDS011;40975;50.390;8.640;2023-11-21T03:24:26;11.55;;;4.82;;
54388;SDS011;40975;50.390;8.640;2023-11-21T03:26:51;10.48;;;5.40;;
54388;SDS011;40975;50.390;8.640;2023-11-21T03:29:17;11.50;;;4.95;;
54388;SDS011;40975;50.390;8.640;2023-11-21T03:31:42;10.57;;;4.82;;
54388;SDS011;40975;50.390;8.640;2023-11-21T03:34:10;10.95;;;5.07;;
54388;SDS011;40975;50.390;8.640;2023-11-21T03:36:40;9.60;;;4.45;;
54388;SDS011;40975;50.390;8.640;2023-11-21T03:39:05;13.55;;;4.90;;
54388;SDS011;40975;50.390;8.640;2023-11-21T03:41:30;9.68;;;4.63;;
54388;SDS011;40975;50.390;8.640;2023-11-21T03:43:55;10.73;;;4.72;;
54388;SDS011;40975;50.390;8.640;2023-11-21T03:46:21;11.77;;;4.50;;
54388;SDS011;40975;50.390;8.640;2023-11-21T03:48:46;7.53;;;3.92;;
54388;SDS011;40975;50.390;8.640;2023-11-21T03:51:11;9.02;;;3.35;;
54388;SDS011;40975;50.390;8.640;2023-11-21T03:53:37;7.43;;;2.60;;
54388;SDS011;40975;50.390;8.640;2023-11-21T03:56:02;7.38;;;3.15;;
54388;SDS011;40975;50.390;8.640;2023-11-21T03:58:28;5.20;;;2.22;;
54388;SDS011;40975;50.390;8.640;2023-11-21T04:00:54;3.08;;;1.60;;
54388;SDS011;40975;50.390;8.640;2023-11-21T04:03:19;6.43;;;2.70;;
54388;SDS011;40975;50.390;8.640;2023-11-21T04:05:44;4.22;;;2.75;;
54388;SDS011;40975;50.390;8.640;2023-11-21T04:08:10;8.63;;;2.80;;
54388;SDS011;40975;50.390;8.640;2023-11-21T04:10:36;9.20;;;2.60;;
54388;SDS011;40975;50.390;8.640;2023-11-21T04:13:01;8.65;;;2.90;;
54388;SDS011;40975;50.390;8.640;2023-11-21T04:15:26;5.57;;;2.40;;
54388;SDS011;40975;50.390;8.640;2023-11-21T04:17:52;5.10;;;2.47;;
54388;SDS011;40975;50.390;8.640;2023-11-21T04:20:17;4.63;;;2.20;;
54388;SDS011;40975;50.390;8.640;2023-11-21T04:22:43;6.85;;;3.50;;
54388;SDS011;40975;50.390;8.640;2023-11-21T04:25:10;6.72;;;2.63;;
54388;SDS011;40975;50.390;8.640;2023-11-21T04:27:36;6.30;;;2.92;;
54388;SDS011;40975;50.390;8.640;2023-11-21T04:30:02;7.82;;;2.88;;
54388;SDS011;40975;50.390;8.640;2023-11-21T04:32:27;7.55;;;3.10;;
54388;SDS011;40975;50.390;8.640;2023-11-21T04:34:53;6.70;;;3.08;;
54388;SDS011;40975;50.390;8.640;2023-11-21T04:37:18;4.68;;;2.75;;
54388;SDS011;40975;50.390;8.640;2023-11-21T04:39:43;7.47;;;3.15;;
54388;SDS011;40975;50.390;8.640;2023-11-21T04:42:09;7.75;;;3.22;;
54388;SDS011;40975;50.390;8.640;2023-11-21T04:44:34;7.88;;;4.10;;
54388;SDS011;40975;50.390;8.640;2023-11-21T04:46:59;10.50;;;4.25;;
54388;SDS011;40975;50.390;8.640;2023-11-21T04:49:25;11.52;;;4.80;;
54388;SDS011;40975;50.390;8.640;2023-11-21T04:51:50;7.80;;;3.78;;
54388;SDS011;40975;50.390;8.640;2023-11-21T04:54:15;9.05;;;4.38;;
54388;SDS011;40975;50.390;8.640;2023-11-21T04:56:41;7.53;;;3.88;;
54388;SDS011;40975;50.390;8.640;2023-11-21T04:59:07;8.73;;;4.45;;
54388;SDS011;40975;50.390;8.640;2023-11-21T05:01:32;9.63;;;3.97;;
54388;SDS011;40975;50.390;8.640;2023-11-21T05:03:57;7.13;;;4.18;;
54388;SDS011;40975;50.390;8.640;2023-11-21T05:06:22;8.13;;;4.07;;
54388;SDS011;40975;50.390;8.640;2023-11-21T05:08:49;7.22;;;3.35;;
54388;SDS011;40975;50.390;8.640;2023-11-21T05:11:23;5.30;;;2.92;;
54388;SDS011;40975;50.390;8.640;2023-11-21T05:13:49;9.85;;;4.78;;
54388;SDS011;40975;50.390;8.640;2023-11-21T05:16:15;7.25;;;3.63;;
54388;SDS011;40975;50.390;8.640;2023-11-21T05:18:40;8.02;;;3.53;;
54388;SDS011;40975;50.390;8.640;2023-11-21T05:21:05;7.53;;;3.35;;
54388;SDS011;40975;50.390;8.640;2023-11-21T05:23:31;5.95;;;2.75;;
54388;SDS011;40975;50.390;8.640;2023-11-21T05:25:56;7.65;;;3.55;;
54388;SDS011;40975;50.390;8.640;2023-11-21T05:28:22;9.85;;;4.45;;
54388;SDS011;40975;50.390;8.640;2023-11-21T05:30:47;9.85;;;4.00;;
54388;SDS011;40975;50.390;8.640;2023-11-21T05:33:14;9.55;;;4.63;;
54388;SDS011;40975;50.390;8.640;2023-11-21T05:35:39;11.10;;;4.82;;
54388;SDS011;40975;50.390;8.640;2023-11-21T05:38:04;12.02;;;4.63;;
54388;SDS011;40975;50.390;8.640;2023-11-21T05:40:30;11.63;;;4.70;;
54388;SDS011;40975;50.390;8.640;2023-11-21T05:42:55;11.55;;;5.07;;
54388;SDS011;40975;50.390;8.640;2023-11-21T05:45:21;11.45;;;5.40;;
54388;SDS011;40975;50.390;8.640;2023-11-21T05:47:46;11.13;;;4.50;;
54388;SDS011;40975;50.390;8.640;2023-11-21T05:50:12;8.00;;;4.10;;
54388;SDS011;40975;50.390;8.640;2023-11-21T05:52:40;8.80;;;4.32;;
54388;SDS011;40975;50.390;8.640;2023-11-21T05:55:07;11.13;;;4.43;;
54388;SDS011;40975;50.390;8.640;2023-11-21T05:57:33;10.80;;;4.90;;
54388;SDS011;40975;50.390;8.640;2023-11-21T06:00:02;8.80;;;4.22;;
54388;SDS011;40975;50.390;8.640;2023-11-21T06:02:47;10.20;;;4.57;;
54388;SDS011;40975;50.390;8.640;2023-11-21T06:05:15;9.60;;;4.25;;
54388;SDS011;40975;50.390;8.640;2023-11-21T06:07:40;6.65;;;3.97;;
54388;SDS011;40975;50.390;8.640;2023-11-21T06:10:06;9.93;;;4.90;;
54388;SDS011;40975;50.390;8.640;2023-11-21T06:12:36;9.07;;;5.15;;
54388;SDS011;40975;50.390;8.640;2023-11-21T06:15:05;12.30;;;5.45;;
54388;SDS011;40975;50.390;8.640;2023-11-21T06:17:33;11.20;;;4.60;;
54388;SDS011;40975;50.390;8.640;2023-11-21T06:20:05;8.90;;;4.43;;
54388;SDS011;40975;50.390;8.640;2023-11-21T06:22:34;8.57;;;4.75;;
54388;SDS011;40975;50.390;8.640;2023-11-21T06:25:04;11.40;;;5.45;;
54388;SDS011;40975;50.390;8.640;2023-11-21T06:27:41;8.70;;;4.53;;
54388;SDS011;40975;50.390;8.640;2023-11-21T06:30:08;9.23;;;4.45;;
54388;SDS011;40975;50.390;8.640;2023-11-21T06:32:35;11.73;;;5.35;;
54388;SDS011;40975;50.390;8.640;2023-11-21T06:35:01;10.75;;;4.50;;
54388;SDS011;40975;50.390;8.640;2023-11-21T06:37:29;11.05;;;4.93;;
54388;SDS011;40975;50.390;8.640;2023-11-21T06:39:55;13.40;;;5.40;;
54388;SDS011;40975;50.390;8.640;2023-11-21T06:42:21;8.68;;;4.68;;
54388;SDS011;40975;50.390;8.640;2023-11-21T06:44:47;10.85;;;5.38;;
54388;SDS011;40975;50.390;8.640;2023-11-21T06:47:13;12.57;;;5.10;;
54388;SDS011;40975;50.390;8.640;2023-11-21T06:49:39;11.95;;;4.80;;
54388;SDS011;40975;50.390;8.640;2023-11-21T06:52:04;10.77;;;4.72;;
54388;SDS011;40975;50.390;8.640;2023-11-21T06:54:30;11.95;;;5.40;;
54388;SDS011;40975;50.390;8.640;2023-11-21T06:56:56;11.90;;;5.82;;
54388;SDS011;40975;50.390;8.640;2023-11-21T06:59:22;11.57;;;5.05;;
54388;SDS011;40975;50.390;8.640;2023-11-21T07:01:47;12.73;;;5.40;;
54388;SDS011;40975;50.390;8.640;2023-11-21T07:04:12;17.20;;;6.15;;
54388;SDS011;40975;50.390;8.640;2023-11-21T07:06:38;10.45;;;5.55;;
54388;SDS011;40975;50.390;8.640;2023-11-21T07:09:03;9.70;;;5.07;;
54388;SDS011;40975;50.390;8.640;2023-11-21T07:11:29;10.82;;;5.20;;
54388;SDS011;40975;50.390;8.640;2023-11-21T07:13:54;13.73;;;5.70;;
54388;SDS011;40975;50.390;8.640;2023-11-21T07:16:19;10.48;;;5.50;;
54388;SDS011;40975;50.390;8.640;2023-11-21T07:18:45;11.98;;;5.22;;
54388;SDS011;40975;50.390;8.640;2023-11-21T07:21:10;8.02;;;4.20;;
54388;SDS011;40975;50.390;8.640;2023-11-21T07:23:37;13.13;;;5.28;;
54388;SDS011;40975;50.390;8.640;2023-11-21T07:26:03;9.75;;;4.43;;
54388;SDS011;40975;50.390;8.640;2023-11-21T07:28:29;9.30;;;4.28;;
54388;SDS011;40975;50.390;8.640;2023-11-21T07:30:55;10.05;;;4.90;;
54388;SDS011;40975;50.390;8.640;2023-11-21T07:33:20;10.50;;;4.47;;
54388;SDS011;40975;50.390;8.640;2023-11-21T07:35:46;10.00;;;4.70;;
54388;SDS011;40975;50.390;8.640;2023-11-21T07:38:11;10.38;;;5.00;;
54388;SDS011;40975;50.390;8.640;2023-11-21T07:40:38;12.90;;;5.20;;
54388;SDS011;40975;50.390;8.640;2023-11-21T07:43:03;8.45;;;3.88;;
54388;SDS011;40975;50.390;8.640;2023-11-21T07:45:28;7.82;;;3.70;;
54388;SDS011;40975;50.390;8.640;2023-11-21T07:47:54;8.23;;;3.78;;
54388;SDS011;40975;50.390;8.640;2023-11-21T07:50:20;9.57;;;4.22;;
54388;SDS011;40975;50.390;8.640;2023-11-21T07:52:46;7.45;;;3.55;;
54388;SDS011;40975;50.390;8.640;2023-11-21T07:55:12;7.45;;;4.20;;
54388;SDS011;40975;50.390;8.640;2023-11-21T07:57:37;7.93;;;4.15;;
54388;SDS011;40975;50.390;8.640;2023-11-21T08:00:03;12.95;;;5.25;;
54388;SDS011;40975;50.390;8.640;2023-11-21T08:02:38;8.35;;;3.60;;
54388;SDS011;40975;50.390;8.640;2023-11-21T08:05:04;7.30;;;3.90;;
54388;SDS011;40975;50.390;8.640;2023-11-21T08:07:32;8.63;;;4.05;;
54388;SDS011;40975;50.390;8.640;2023-11-21T08:09:57;8.75;;;4.35;;
54388;SDS011;40975;50.390;8.640;2023-11-21T08:12:23;7.20;;;3.45;;
54388;SDS011;40975;50.390;8.640;2023-11-21T08:14:49;9.57;;;3.90;;
54388;SDS011;40975;50.390;8.640;2023-11-21T08:17:14;6.50;;;3.80;;
54388;SDS011;40975;50.390;8.640;2023-11-21T08:19:39;8.00;;;3.85;;
54388;SDS011;40975;50.390;8.640;2023-11-21T08:22:04;7.43;;;3.80;;
54388;SDS011;40975;50.390;8.640;2023-11-21T08:24:33;9.88;;;4.22;;
54388;SDS011;40975;50.390;8.640;2023-11-21T08:26:58;6.63;;;3.65;;
54388;SDS011;40975;50.390;8.640;2023-11-21T08:29:23;6.65;;;3.40;;
54388;SDS011;40975;50.390;8.640;2023-11-21T08:31:49;7.28;;;3.70;;
54388;SDS011;40975;50.390;8.640;2023-11-21T08:34:14;10.32;;;3.35;;
54388;SDS011;40975;50.390;8.640;2023-11-21T08:36:43;10.40;;;3.63;;
54388;SDS011;40975;50.390;8.640;2023-11-21T08:39:08;4.78;;;3.05;;
54388;SDS011;40975;50.390;8.640;2023-11-21T08:41:34;7.40;;;3.83;;
54388;SDS011;40975;50.390;8.640;2023-11-21T08:44:01;5.55;;;3.67;;
54388;SDS011;40975;50.390;8.640;2023-11-21T08:46:27;5.57;;;3.20;;
54388;SDS011;40975;50.390;8.640;2023-11-21T08:48:52;7.25;;;3.00;;
54388;SDS011;40975;50.390;8.640;2023-11-21T08:51:18;3.53;;;2.17;;
54388;SDS011;40975;50.390;8.640;2023-11-21T08:53:43;8.55;;;3.53;;
54388;SDS011;40975;50.390;8.640;2023-11-21T08:56:12;6.13;;;3.30;;
54388;SDS011;40975;50.390;8.640;2023-11-21T08:58:38;5.88;;;2.92;;
54388;SDS011;40975;50.390;8.640;2023-11-21T09:01:04;7.30;;;2.78;;
54388;SDS011;40975;50.390;8.640;2023-11-21T09:03:31;4.88;;;3.22;;
54388;SDS011;40975;50.390;8.640;2023-11-21T09:05:58;4.65;;;2.60;;
54388;SDS011;40975;50.390;8.640;2023-11-21T09:08:24;3.25;;;2.30;;
54388;SDS011;40975;50.390;8.640;2023-11-21T09:10:50;4.55;;;2.42;;
54388;SDS011;40975;50.390;8.640;2023-11-21T09:13:15;4.35;;;2.40;;
54388;SDS011;40975;50.390;8.640;2023-11-21T09:15:42;3.08;;;2.25;;
54388;SDS011;40975;50.390;8.640;2023-11-21T09:18:11;2.72;;;1.92;;
54388;SDS011;40975;50.390;8.640;2023-11-21T09:20:40;3.00;;;1.65;;
54388;SDS011;40975;50.390;8.640;2023-11-21T09:23:05;4.53;;;2.33;;
54388;SDS011;40975;50.390;8.640;2023-11-21T09:25:32;3.35;;;1.75;;
54388;SDS011;40975;50.390;8.640;2023-11-21T09:27:57;2.33;;;1.67;;
54388;SDS011;40975;50.390;8.640;2023-11-21T09:30:23;4.53;;;2.13;;
54388;SDS011;40975;50.390;8.640;2023-11-21T09:32:49;5.90;;;1.73;;
54388;SDS011;40975;50.390;8.640;2023-11-21T09:35:15;3.03;;;1.73;;
54388;SDS011;40975;50.390;8.640;2023-11-21T09:37:43;4.15;;;1.80;;
54388;SDS011;40975;50.390;8.640;2023-11-21T09:40:11;3.50;;;2.25;;
54388;SDS011;40975;50.390;8.640;2023-11-21T09:45:26;4.00;;;2.00;;
54388;SDS011;40975;50.390;8.640;2023-11-21T09:47:56;6.65;;;2.20;;
54388;SDS011;40975;50.390;8.640;2023-11-21T09:50:21;4.03;;;2.00;;
54388;SDS011;40975;50.390;8.640;2023-11-21T09:52:50;3.95;;;2.20;;
54388;SDS011;40975;50.390;8.640;2023-11-21T09:55:22;2.95;;;1.77;;
54388;SDS011;40975;50.390;8.640;2023-11-21T09:57:52;2.10;;;1.42;;
54388;SDS011;40975;50.390;8.640;2023-11-21T10:00:19;5.93;;;2.15;;
54388;SDS011;40975;50.390;8.640;2023-11-21T10:02:57;4.30;;;2.45;;
54388;SDS011;40975;50.390;8.640;2023-11-21T10:05:23;2.40;;;2.05;;
54388;SDS011;40975;50.390;8.640;2023-11-21T10:07:49;4.05;;;2.45;;
54388;SDS011;40975;50.390;8.640;2023-11-21T10:10:16;5.82;;;2.38;;
54388;SDS011;40975;50.390;8.640;2023-11-21T10:12:45;2.80;;;2.15;;
54388;SDS011;40975;50.390;8.640;2023-11-21T10:15:21;4.65;;;1.77;;
54388;SDS011;40975;50.390;8.640;2023-11-21T10:17:46;4.47;;;2.53;;
54388;SDS011;40975;50.390;8.640;2023-11-21T10:20:14;4.10;;;1.98;;
54388;SDS011;40975;50.390;8.640;2023-11-21T10:22:40;4.60;;;2.35;;
54388;SDS011;40975;50.390;8.640;2023-11-21T10:25:10;3.83;;;1.90;;
54388;SDS011;40975;50.390;8.640;2023-11-21T10:27:36;3.00;;;1.80;;
54388;SDS011;40975;50.390;8.640;2023-11-21T10:30:04;3.53;;;2.30;;
54388;SDS011;40975;50.390;8.640;2023-11-21T10:32:30;5.30;;;2.50;;
54388;SDS011;40975;50.390;8.640;2023-11-21T10:34:57;4.47;;;2.03;;
54388;SDS011;40975;50.390;8.640;2023-11-21T10:37:25;4.85;;;2.33;;
54388;SDS011;40975;50.390;8.640;2023-11-21T10:39:55;3.10;;;2.08;;
54388;SDS011;40975;50.390;8.640;2023-11-21T10:42:22;4.45;;;2.20;;
54388;SDS011;40975;50.390;8.640;2023-11-21T10:44:49;7.45;;;2.65;;
54388;SDS011;40975;50.390;8.640;2023-11-21T10:47:14;9.65;;;2.60;;
54388;SDS011;40975;50.390;8.640;2023-11-21T10:49:40;4.60;;;2.10;;
54388;SDS011;40975;50.390;8.640;2023-11-21T10:52:05;3.40;;;1.77;;
54388;SDS011;40975;50.390;8.640;2023-11-21T10:54:31;5.18;;;2.20;;
54388;SDS011;40975;50.390;8.640;2023-11-21T10:56:57;3.42;;;1.80;;
54388;SDS011;40975;50.390;8.640;2023-11-21T10:59:24;3.22;;;1.73;;
54388;SDS011;40975;50.390;8.640;2023-11-21T11:01:53;5.70;;;2.15;;
54388;SDS011;40975;50.390;8.640;2023-11-21T11:04:19;4.15;;;2.65;;
54388;SDS011;40975;50.390;8.640;2023-11-21T11:06:54;3.03;;;2.03;;
54388;SDS011;40975;50.390;8.640;2023-11-21T11:09:22;6.10;;;2.45;;
54388;SDS011;40975;50.390;8.640;2023-11-21T11:11:47;4.88;;;2.65;;
54388;SDS011;40975;50.390;8.640;2023-11-21T11:14:14;3.22;;;2.45;;
54388;SDS011;40975;50.390;8.640;2023-11-21T11:16:40;3.70;;;2.22;;
54388;SDS011;40975;50.390;8.640;2023-11-21T11:19:06;4.47;;;2.17;;
54388;SDS011;40975;50.390;8.640;2023-11-21T11:21:43;3.63;;;2.40;;
54388;SDS011;40975;50.390;8.640;2023-11-21T11:27:19;5.68;;;2.38;;
54388;SDS011;40975;50.390;8.640;2023-11-21T11:30:20;6.28;;;2.78;;
54388;SDS011;40975;50.390;8.640;2023-11-21T11:36:00;3.67;;;2.20;;
54388;SDS011;40975;50.390;8.640;2023-11-21T11:38:31;3.35;;;2.13;;
54388;SDS011;40975;50.390;8.640;2023-11-21T11:41:01;4.05;;;2.25;;
54388;SDS011;40975;50.390;8.640;2023-11-21T11:43:29;3.80;;;2.25;;
54388;SDS011;40975;50.390;8.640;2023-11-21T11:45:57;3.75;;;2.25;;
54388;SDS011;40975;50.390;8.640;2023-11-21T11:48:24;3.67;;;2.10;;
54388;SDS011;40975;50.390;8.640;2023-11-21T11:51:02;6.70;;;3.28;;
54388;SDS011;40975;50.390;8.640;2023-11-21T11:53:46;4.38;;;2.42;;
54388;SDS011;40975;50.390;8.640;2023-11-21T11:56:29;5.28;;;2.28;;
54388;SDS011;40975;50.390;8.640;2023-11-21T11:58:57;6.15;;;2.33;;
54388;SDS011;40975;50.390;8.640;2023-11-21T12:01:25;4.00;;;2.60;;
54388;SDS011;40975;50.390;8.640;2023-11-21T12:04:36;5.95;;;2.47;;
54388;SDS011;40975;50.390;8.640;2023-11-21T12:06:42;3.90;;;2.42;;
54388;SDS011;40975;50.390;8.640;2023-11-21T12:11:45;4.75;;;2.47;;
54388;SDS011;40975;50.390;8.640;2023-11-21T12:14:11;3.95;;;2.33;;
54388;SDS011;40975;50.390;8.640;2023-11-21T12:16:38;7.65;;;2.78;;
54388;SDS011;40975;50.390;8.640;2023-11-21T12:19:04;5.63;;;2.55;;
54388;SDS011;40975;50.390;8.640;2023-11-21T12:21:30;6.05;;;2.67;;
54388;SDS011;40975;50.390;8.640;2023-11-21T12:23:57;6.10;;;2.60;;
54388;SDS011;40975;50.390;8.640;2023-11-21T12:26:23;4.82;;;2.28;;
54388;SDS011;40975;50.390;8.640;2023-11-21T12:28:52;5.00;;;2.50;;
54388;SDS011;40975;50.390;8.640;2023-11-21T12:31:20;4.55;;;2.33;;
54388;SDS011;40975;50.390;8.640;2023-11-21T12:33:46;6.68;;;2.45;;
54388;SDS011;40975;50.390;8.640;2023-11-21T12:36:12;6.55;;;2.70;;
54388;SDS011;40975;50.390;8.640;2023-11-21T12:38:38;4.88;;;2.35;;
54388;SDS011;40975;50.390;8.640;2023-11-21T12:41:03;6.47;;;3.00;;
54388;SDS011;40975;50.390;8.640;2023-11-21T12:43:29;6.85;;;2.85;;
54388;SDS011;40975;50.390;8.640;2023-11-21T12:46:08;6.57;;;2.50;;
54388;SDS011;40975;50.390;8.640;2023-11-21T12:48:38;6.80;;;2.28;;
54388;SDS011;40975;50.390;8.640;2023-11-21T12:51:05;6.63;;;2.38;;
54388;SDS011;40975;50.390;8.640;2023-11-21T12:53:31;6.00;;;3.25;;
54388;SDS011;40975;50.390;8.640;2023-11-21T12:56:02;4.07;;;2.30;;
54388;SDS011;40975;50.390;8.640;2023-11-21T12:58:34;4.80;;;2.05;;
54388;SDS011;40975;50.390;8.640;2023-11-21T13:01:00;5.35;;;2.53;;
54388;SDS011;40975;50.390;8.640;2023-11-21T13:03:29;5.45;;;2.67;;
54388;SDS011;40975;50.390;8.640;2023-11-21T13:05:55;6.20;;;2.47;;
54388;SDS011;40975;50.390;8.640;2023-11-21T13:08:22;3.33;;;2.15;;
54388;SDS011;40975;50.390;8.640;2023-11-21T13:10:49;6.68;;;2.55;;
54388;SDS011;40975;50.390;8.640;2023-11-21T13:13:17;3.35;;;2.20;;
54388;SDS011;40975;50.390;8.640;2023-11-21T13:15:49;4.00;;;2.50;;
54388;SDS011;40975;50.390;8.640;2023-11-21T13:18:15;5.63;;;2.50;;
54388;SDS011;40975;50.390;8.640;2023-11-21T13:20:41;4.63;;;2.40;;
54388;SDS011;40975;50.390;8.640;2023-11-21T13:23:08;3.03;;;1.98;;
54388;SDS011;40975;50.390;8.640;2023-11-21T13:25:36;3.92;;;2.38;;
54388;SDS011;40975;50.390;8.640;2023-11-21T13:28:03;8.45;;;2.70;;
54388;SDS011;40975;50.390;8.640;2023-11-21T13:30:29;4.72;;;2.28;;
54388;SDS011;40975;50.390;8.640;2023-11-21T13:33:02;5.50;;;3.08;;
54388;SDS011;40975;50.390;8.640;2023-11-21T13:35:34;6.75;;;3.15;;
54388;SDS011;40975;50.390;8.640;2023-11-21T13:38:08;7.47;;;2.95;;
54388;SDS011;40975;50.390;8.640;2023-11-21T13:40:38;5.85;;;3.30;;
54388;SDS011;40975;50.390;8.640;2023-11-21T13:43:14;6.10;;;3.47;;
54388;SDS011;40975;50.390;8.640;2023-11-21T13:45:41;7.18;;;2.78;;
54388;SDS011;40975;50.390;8.640;2023-11-21T13:48:08;4.70;;;2.80;;
54388;SDS011;40975;50.390;8.640;2023-11-21T13:50:41;4.53;;;2.72;;
54388;SDS011;40975;50.390;8.640;2023-11-21T13:53:13;5.10;;;2.47;;
54388;SDS011;40975;50.390;8.640;2023-11-21T13:55:49;4.80;;;2.85;;
54388;SDS011;40975;50.390;8.640;2023-11-21T13:58:23;4.30;;;2.28;;
54388;SDS011;40975;50.390;8.640;2023-11-21T14:01:06;4.40;;;2.30;;
54388;SDS011;40975;50.390;8.640;2023-11-21T14:03:41;5.05;;;1.92;;
54388;SDS011;40975;50.390;8.640;2023-11-21T14:06:17;3.42;;;1.98;;
54388;SDS011;40975;50.390;8.640;2023-11-21T14:08:49;3.53;;;2.28;;
54388;SDS011;40975;50.390;8.640;2023-11-21T14:11:15;2.72;;;1.95;;
54388;SDS011;40975;50.390;8.640;2023-11-21T14:13:43;3.03;;;2.42;;
54388;SDS011;40975;50.390;8.640;2023-11-21T14:16:12;4.30;;;2.47;;
54388;SDS011;40975;50.390;8.640;2023-11-21T14:18:39;4.97;;;1.77;;
54388;SDS011;40975;50.390;8.640;2023-11-21T14:21:15;5.13;;;2.72;;
54388;SDS011;40975;50.390;8.640;2023-11-21T14:23:41;4.25;;;1.90;;
54388;SDS011;40975;50.390;8.640;2023-11-21T14:26:07;5.22;;;2.30;;
54388;SDS011;40975;50.390;8.640;2023-11-21T14:28:32;4.03;;;2.38;;
54388;SDS011;40975;50.390;8.640;2023-11-21T14:31:00;4.85;;;2.65;;
54388;SDS011;40975;50.390;8.640;2023-11-21T14:33:25;4.38;;;2.25;;
54388;SDS011;40975;50.390;8.640;2023-11-21T14:35:50;6.63;;;3.20;;
54388;SDS011;40975;50.390;8.640;2023-11-21T14:38:16;5.15;;;2.25;;
54388;SDS011;40975;50.390;8.640;2023-11-21T14:40:41;3.67;;;2.10;;
54388;SDS011;40975;50.390;8.640;2023-11-21T14:43:06;5.88;;;3.08;;
54388;SDS011;40975;50.390;8.640;2023-11-21T14:45:32;6.78;;;2.47;;
54388;SDS011;40975;50.390;8.640;2023-11-21T14:47:58;6.32;;;2.60;;
54388;SDS011;40975;50.390;8.640;2023-11-21T14:50:29;7.43;;;2.97;;
54388;SDS011;40975;50.390;8.640;2023-11-21T14:53:13;4.93;;;2.88;;
54388;SDS011;40975;50.390;8.640;2023-11-21T14:55:39;6.85;;;3.03;;